Wood River, NE (68883)

2:39 PM CDT on August 29, 2014 (GMT -0500)
Hastings Municipal | Change Station
CLOSE
Current Station
Airport
Location: Hastings,
Elevation: 1959 ft
Nearby Weather Stations

Elev 1959 ft 40.60 °N, 98.43 °W | Updated 46 minutes ago

Scattered Clouds
Scattered Clouds
76 °F
Feels Like 76 °F
N
0
Wind Variable Wind from North

Today
High -- | Low -- °F
--% Chance of Precip.
Yesterday
High -- | Low -- °F
Precip. -- in
6:58 AM 8:11 PM
Waxing Crescent, 16% visible
Pressure 29.81 in
Visibility 10.0 miles
Clouds Few 2100 ft
Few 3000 ft
Scattered Clouds 3900 ft
Dew Point 63 °F
Humidity 64%
Rainfall 0.00 in
Snow Depth Not available.
UV 8 out of 12
Pollen 8.10 out of 12
Air Quality Not available.
Flu Activity Not available.
METAR KHSI 291853Z AUTO 00000KT 10SM FEW021 FEW030 SCT039 24/17 A2985 RMK AO2 SLP092 T02440172

More Conditions Fewer Conditions

Pressure 29.81 in
Visibility 10.0 miles
Clouds Few 2100 ft
Few 3000 ft
Scattered Clouds 3900 ft
Dew Point 63 °F
Humidity 64%
Rainfall 0.00 in
Snow Depth Not available.
UV 8 out of 12
Pollen 8.10 out of 12
Air Quality Not available.
Flu Activity Not available.
METAR KHSI 291853Z AUTO 00000KT 10SM FEW021 FEW030 SCT039 24/17 A2985 RMK AO2 SLP092 T02440172

More Conditions Fewer Conditions

10-Day Weather Forecast

Almanac

Astronomy

Aug. 29, 2014 Rise Set
Actual Time 6:58 AM CDT 8:11 PM CDT
Civil Twilight 6:30 AM CDT 8:39 PM CDT
Nautical Twilight 5:56 AM CDT 9:13 PM CDT
Astronomical Twilight 5:20 AM CDT 9:48 PM CDT
Moon 10:51 AM CDT 10:08 PM CDT
Length of Visible Light 14h 09m
Length of Day
13h 12m
Tomorrow will be 2m 35s shorter.
Waxing Crescent, 16% of the Moon is Illuminated
Today
Waxing Crescent
Sep 2
First Quarter
Sep 8
Full
Sep 15
Last Quarter
Sep 24
New

Today's Extremes

State Highs State Lows

Community

WunderPhotos

Upload Photos

1,748,318 photos uploaded!

WunderBlogs® & News

By Dr. Jeff Masters
Director of Meteorology, Weather Underground
By Kari Strenfel
Meteorologist, Weather Underground
By Christopher C. Burt
Weather Historian, Weather Underground
August 29, 2014
August 29, 2014
August 29, 2014

Nearby

Snow Depth

Station Depth Elevation
No new snow has been reported.

Earthquake Activity

City Distance Mag. Time & Date
No recent earthquake activity has been reported nearby.
Minimum magnitude displayed is 2.5.

Coastal Water Temperatures

Place Temperature
No Stations Reporting

Nearby Weather Stations